sensor_id;sensor_type;location;lat;lon;timestamp;P1;durP1;ratioP1;P2;durP2;ratioP2
19089;SDS011;9677;50.656;13.064;2023-05-29T00:01:46;10.47;;;9.50;;
19089;SDS011;9677;50.656;13.064;2023-05-29T00:04:14;11.23;;;9.33;;
19089;SDS011;9677;50.656;13.064;2023-05-29T00:06:42;10.50;;;9.50;;
19089;SDS011;9677;50.656;13.064;2023-05-29T00:09:11;10.13;;;9.13;;
19089;SDS011;9677;50.656;13.064;2023-05-29T00:11:39;10.43;;;9.33;;
19089;SDS011;9677;50.656;13.064;2023-05-29T00:14:07;10.27;;;9.30;;
19089;SDS011;9677;50.656;13.064;2023-05-29T00:16:39;11.03;;;9.60;;
19089;SDS011;9677;50.656;13.064;2023-05-29T00:19:07;10.60;;;9.50;;
19089;SDS011;9677;50.656;13.064;2023-05-29T00:21:35;10.10;;;9.10;;
19089;SDS011;9677;50.656;13.064;2023-05-29T00:24:03;10.50;;;9.40;;
19089;SDS011;9677;50.656;13.064;2023-05-29T00:26:33;10.27;;;9.27;;
19089;SDS011;9677;50.656;13.064;2023-05-29T00:29:02;10.13;;;9.13;;
19089;SDS011;9677;50.656;13.064;2023-05-29T00:31:32;9.90;;;9.00;;
19089;SDS011;9677;50.656;13.064;2023-05-29T00:34:00;9.90;;;9.00;;
19089;SDS011;9677;50.656;13.064;2023-05-29T00:36:28;10.33;;;9.40;;
19089;SDS011;9677;50.656;13.064;2023-05-29T00:38:58;10.00;;;9.10;;
19089;SDS011;9677;50.656;13.064;2023-05-29T00:41:26;10.37;;;9.37;;
19089;SDS011;9677;50.656;13.064;2023-05-29T00:43:55;10.20;;;9.20;;
19089;SDS011;9677;50.656;13.064;2023-05-29T00:46:23;10.73;;;9.73;;
19089;SDS011;9677;50.656;13.064;2023-05-29T00:48:51;10.10;;;9.20;;
19089;SDS011;9677;50.656;13.064;2023-05-29T00:51:20;10.40;;;9.40;;
19089;SDS011;9677;50.656;13.064;2023-05-29T00:53:49;10.13;;;9.23;;
19089;SDS011;9677;50.656;13.064;2023-05-29T00:56:19;10.13;;;9.23;;
19089;SDS011;9677;50.656;13.064;2023-05-29T00:58:48;10.50;;;9.50;;
19089;SDS011;9677;50.656;13.064;2023-05-29T01:01:19;10.40;;;9.40;;
19089;SDS011;9677;50.656;13.064;2023-05-29T01:03:49;10.43;;;9.43;;
19089;SDS011;9677;50.656;13.064;2023-05-29T01:06:20;10.60;;;9.60;;
19089;SDS011;9677;50.656;13.064;2023-05-29T01:08:49;10.63;;;9.63;;
19089;SDS011;9677;50.656;13.064;2023-05-29T01:11:19;10.30;;;9.30;;
19089;SDS011;9677;50.656;13.064;2023-05-29T01:13:55;10.60;;;9.60;;
19089;SDS011;9677;50.656;13.064;2023-05-29T01:16:30;10.40;;;9.40;;
19089;SDS011;9677;50.656;13.064;2023-05-29T01:19:10;10.40;;;9.40;;
19089;SDS011;9677;50.656;13.064;2023-05-29T01:21:57;10.57;;;9.50;;
19089;SDS011;9677;50.656;13.064;2023-05-29T01:24:37;10.47;;;9.47;;
19089;SDS011;9677;50.656;13.064;2023-05-29T01:27:15;10.60;;;9.50;;
19089;SDS011;9677;50.656;13.064;2023-05-29T01:29:45;10.20;;;9.27;;
19089;SDS011;9677;50.656;13.064;2023-05-29T01:32:14;10.63;;;9.53;;
19089;SDS011;9677;50.656;13.064;2023-05-29T01:34:44;10.50;;;9.50;;
19089;SDS011;9677;50.656;13.064;2023-05-29T01:37:13;10.60;;;9.50;;
19089;SDS011;9677;50.656;13.064;2023-05-29T01:39:41;10.30;;;9.40;;
19089;SDS011;9677;50.656;13.064;2023-05-29T01:42:09;10.83;;;9.80;;
19089;SDS011;9677;50.656;13.064;2023-05-29T01:44:39;10.40;;;9.50;;
19089;SDS011;9677;50.656;13.064;2023-05-29T01:47:07;10.90;;;9.87;;
19089;SDS011;9677;50.656;13.064;2023-05-29T01:49:36;10.93;;;9.83;;
19089;SDS011;9677;50.656;13.064;2023-05-29T01:52:07;10.73;;;9.73;;
19089;SDS011;9677;50.656;13.064;2023-05-29T01:54:35;10.50;;;9.50;;
19089;SDS011;9677;50.656;13.064;2023-05-29T01:57:03;10.33;;;9.43;;
19089;SDS011;9677;50.656;13.064;2023-05-29T01:59:32;10.23;;;9.33;;
19089;SDS011;9677;50.656;13.064;2023-05-29T02:02:06;10.40;;;9.50;;
19089;SDS011;9677;50.656;13.064;2023-05-29T02:04:35;10.63;;;9.60;;
19089;SDS011;9677;50.656;13.064;2023-05-29T02:07:03;11.17;;;10.17;;
19089;SDS011;9677;50.656;13.064;2023-05-29T02:09:32;10.80;;;9.80;;
19089;SDS011;9677;50.656;13.064;2023-05-29T02:12:02;10.90;;;9.80;;
19089;SDS011;9677;50.656;13.064;2023-05-29T02:14:31;10.53;;;9.53;;
19089;SDS011;9677;50.656;13.064;2023-05-29T02:16:59;10.37;;;9.37;;
19089;SDS011;9677;50.656;13.064;2023-05-29T02:19:29;11.13;;;10.03;;
19089;SDS011;9677;50.656;13.064;2023-05-29T02:21:59;10.80;;;9.80;;
19089;SDS011;9677;50.656;13.064;2023-05-29T02:24:27;10.70;;;9.53;;
19089;SDS011;9677;50.656;13.064;2023-05-29T02:26:56;11.00;;;9.90;;
19089;SDS011;9677;50.656;13.064;2023-05-29T02:29:24;10.60;;;9.60;;
19089;SDS011;9677;50.656;13.064;2023-05-29T02:31:53;10.43;;;9.43;;
19089;SDS011;9677;50.656;13.064;2023-05-29T02:34:21;10.47;;;9.43;;
19089;SDS011;9677;50.656;13.064;2023-05-29T02:36:51;10.70;;;9.60;;
19089;SDS011;9677;50.656;13.064;2023-05-29T02:39:20;10.33;;;9.40;;
19089;SDS011;9677;50.656;13.064;2023-05-29T02:41:48;10.40;;;9.40;;
19089;SDS011;9677;50.656;13.064;2023-05-29T02:44:16;11.03;;;10.00;;
19089;SDS011;9677;50.656;13.064;2023-05-29T02:46:44;10.70;;;9.70;;
19089;SDS011;9677;50.656;13.064;2023-05-29T02:49:14;10.73;;;9.73;;
19089;SDS011;9677;50.656;13.064;2023-05-29T02:51:42;10.70;;;9.70;;
19089;SDS011;9677;50.656;13.064;2023-05-29T02:54:11;10.53;;;9.53;;
19089;SDS011;9677;50.656;13.064;2023-05-29T02:56:40;10.87;;;9.87;;
19089;SDS011;9677;50.656;13.064;2023-05-29T02:59:08;10.57;;;9.60;;
19089;SDS011;9677;50.656;13.064;2023-05-29T03:01:36;10.50;;;9.50;;
19089;SDS011;9677;50.656;13.064;2023-05-29T03:04:04;10.90;;;9.80;;
19089;SDS011;9677;50.656;13.064;2023-05-29T03:06:33;10.57;;;9.57;;
19089;SDS011;9677;50.656;13.064;2023-05-29T03:09:01;11.00;;;10.00;;
19089;SDS011;9677;50.656;13.064;2023-05-29T03:11:31;10.43;;;9.53;;
19089;SDS011;9677;50.656;13.064;2023-05-29T03:13:59;10.90;;;9.80;;
19089;SDS011;9677;50.656;13.064;2023-05-29T03:16:27;10.50;;;9.50;;
19089;SDS011;9677;50.656;13.064;2023-05-29T03:18:56;10.57;;;9.57;;
19089;SDS011;9677;50.656;13.064;2023-05-29T03:21:24;10.50;;;9.50;;
19089;SDS011;9677;50.656;13.064;2023-05-29T03:23:53;11.00;;;9.90;;
19089;SDS011;9677;50.656;13.064;2023-05-29T03:26:21;10.53;;;9.53;;
19089;SDS011;9677;50.656;13.064;2023-05-29T03:28:51;10.60;;;9.60;;
19089;SDS011;9677;50.656;13.064;2023-05-29T03:31:19;10.50;;;9.50;;
19089;SDS011;9677;50.656;13.064;2023-05-29T03:33:47;10.80;;;9.70;;
19089;SDS011;9677;50.656;13.064;2023-05-29T03:36:38;10.50;;;9.60;;
19089;SDS011;9677;50.656;13.064;2023-05-29T03:39:06;10.50;;;9.50;;
19089;SDS011;9677;50.656;13.064;2023-05-29T03:41:35;11.10;;;10.10;;
19089;SDS011;9677;50.656;13.064;2023-05-29T03:44:05;11.20;;;9.90;;
19089;SDS011;9677;50.656;13.064;2023-05-29T03:46:33;10.80;;;9.70;;
19089;SDS011;9677;50.656;13.064;2023-05-29T03:49:01;14.70;;;10.03;;
19089;SDS011;9677;50.656;13.064;2023-05-29T03:51:30;10.57;;;9.57;;
19089;SDS011;9677;50.656;13.064;2023-05-29T03:53:58;10.70;;;9.60;;
19089;SDS011;9677;50.656;13.064;2023-05-29T03:56:26;10.70;;;9.60;;
19089;SDS011;9677;50.656;13.064;2023-05-29T03:58:55;10.93;;;9.93;;
19089;SDS011;9677;50.656;13.064;2023-05-29T04:01:24;11.27;;;10.17;;
19089;SDS011;9677;50.656;13.064;2023-05-29T04:03:53;10.57;;;9.57;;
19089;SDS011;9677;50.656;13.064;2023-05-29T04:06:22;10.90;;;9.83;;
19089;SDS011;9677;50.656;13.064;2023-05-29T04:08:50;12.30;;;11.10;;
19089;SDS011;9677;50.656;13.064;2023-05-29T04:11:19;12.40;;;11.20;;
19089;SDS011;9677;50.656;13.064;2023-05-29T04:13:48;12.90;;;11.60;;
19089;SDS011;9677;50.656;13.064;2023-05-29T04:16:17;12.30;;;11.10;;
19089;SDS011;9677;50.656;13.064;2023-05-29T04:18:46;12.70;;;11.40;;
19089;SDS011;9677;50.656;13.064;2023-05-29T04:21:14;11.67;;;10.57;;
19089;SDS011;9677;50.656;13.064;2023-05-29T04:23:42;11.60;;;10.50;;
19089;SDS011;9677;50.656;13.064;2023-05-29T04:26:11;12.73;;;10.87;;
19089;SDS011;9677;50.656;13.064;2023-05-29T04:28:40;11.80;;;10.70;;
19089;SDS011;9677;50.656;13.064;2023-05-29T04:31:08;11.30;;;10.20;;
19089;SDS011;9677;50.656;13.064;2023-05-29T04:33:40;11.50;;;10.40;;
19089;SDS011;9677;50.656;13.064;2023-05-29T04:36:13;11.47;;;10.30;;
19089;SDS011;9677;50.656;13.064;2023-05-29T04:38:44;10.60;;;9.50;;
19089;SDS011;9677;50.656;13.064;2023-05-29T04:41:14;11.37;;;10.27;;
19089;SDS011;9677;50.656;13.064;2023-05-29T04:43:42;11.00;;;9.90;;
19089;SDS011;9677;50.656;13.064;2023-05-29T04:46:10;10.77;;;9.77;;
19089;SDS011;9677;50.656;13.064;2023-05-29T04:48:39;10.80;;;9.80;;
19089;SDS011;9677;50.656;13.064;2023-05-29T04:51:08;10.40;;;9.50;;
19089;SDS011;9677;50.656;13.064;2023-05-29T04:53:39;10.70;;;9.70;;
19089;SDS011;9677;50.656;13.064;2023-05-29T04:56:08;11.10;;;10.00;;
19089;SDS011;9677;50.656;13.064;2023-05-29T04:58:36;11.03;;;10.00;;
19089;SDS011;9677;50.656;13.064;2023-05-29T05:01:05;10.87;;;9.87;;
19089;SDS011;9677;50.656;13.064;2023-05-29T05:03:36;10.80;;;9.70;;
19089;SDS011;9677;50.656;13.064;2023-05-29T05:06:04;10.67;;;9.77;;
19089;SDS011;9677;50.656;13.064;2023-05-29T05:08:34;10.63;;;9.63;;
19089;SDS011;9677;50.656;13.064;2023-05-29T05:11:04;10.53;;;9.53;;
19089;SDS011;9677;50.656;13.064;2023-05-29T05:13:33;10.20;;;9.30;;
19089;SDS011;9677;50.656;13.064;2023-05-29T05:16:01;11.00;;;10.00;;
19089;SDS011;9677;50.656;13.064;2023-05-29T05:18:30;10.90;;;9.90;;
19089;SDS011;9677;50.656;13.064;2023-05-29T05:21:03;10.53;;;9.53;;
19089;SDS011;9677;50.656;13.064;2023-05-29T05:23:33;10.30;;;9.40;;
19089;SDS011;9677;50.656;13.064;2023-05-29T05:26:22;10.43;;;9.43;;
19089;SDS011;9677;50.656;13.064;2023-05-29T05:28:52;10.50;;;9.50;;
19089;SDS011;9677;50.656;13.064;2023-05-29T05:31:22;10.00;;;9.10;;
19089;SDS011;9677;50.656;13.064;2023-05-29T05:33:51;10.50;;;9.50;;
19089;SDS011;9677;50.656;13.064;2023-05-29T05:36:19;10.43;;;9.43;;
19089;SDS011;9677;50.656;13.064;2023-05-29T05:38:53;10.50;;;9.50;;
19089;SDS011;9677;50.656;13.064;2023-05-29T05:41:23;10.23;;;9.23;;
19089;SDS011;9677;50.656;13.064;2023-05-29T05:43:51;10.20;;;9.30;;
19089;SDS011;9677;50.656;13.064;2023-05-29T05:46:36;10.50;;;9.50;;
19089;SDS011;9677;50.656;13.064;2023-05-29T05:49:04;10.20;;;9.20;;
19089;SDS011;9677;50.656;13.064;2023-05-29T05:51:32;10.13;;;9.23;;
19089;SDS011;9677;50.656;13.064;2023-05-29T05:54:00;10.27;;;9.37;;
19089;SDS011;9677;50.656;13.064;2023-05-29T05:56:31;10.27;;;9.37;;
19089;SDS011;9677;50.656;13.064;2023-05-29T05:58:59;10.80;;;9.80;;
19089;SDS011;9677;50.656;13.064;2023-05-29T06:01:27;11.83;;;9.70;;
19089;SDS011;9677;50.656;13.064;2023-05-29T06:03:57;10.37;;;9.40;;
19089;SDS011;9677;50.656;13.064;2023-05-29T06:06:25;10.70;;;9.70;;
19089;SDS011;9677;50.656;13.064;2023-05-29T06:08:53;10.90;;;9.43;;
19089;SDS011;9677;50.656;13.064;2023-05-29T06:11:23;10.47;;;9.47;;
19089;SDS011;9677;50.656;13.064;2023-05-29T06:13:53;10.27;;;9.27;;
19089;SDS011;9677;50.656;13.064;2023-05-29T06:16:26;10.27;;;9.27;;
19089;SDS011;9677;50.656;13.064;2023-05-29T06:18:54;10.30;;;9.33;;
19089;SDS011;9677;50.656;13.064;2023-05-29T06:21:24;10.57;;;9.60;;
19089;SDS011;9677;50.656;13.064;2023-05-29T06:23:54;9.93;;;9.03;;
19089;SDS011;9677;50.656;13.064;2023-05-29T06:26:22;10.27;;;9.20;;
19089;SDS011;9677;50.656;13.064;2023-05-29T06:28:52;10.50;;;9.40;;
19089;SDS011;9677;50.656;13.064;2023-05-29T06:31:21;9.80;;;8.90;;
19089;SDS011;9677;50.656;13.064;2023-05-29T06:33:49;10.17;;;9.27;;
19089;SDS011;9677;50.656;13.064;2023-05-29T06:36:17;10.50;;;9.50;;
19089;SDS011;9677;50.656;13.064;2023-05-29T06:38:46;10.27;;;9.37;;
19089;SDS011;9677;50.656;13.064;2023-05-29T06:41:15;10.17;;;9.27;;
19089;SDS011;9677;50.656;13.064;2023-05-29T06:43:43;10.13;;;9.23;;
19089;SDS011;9677;50.656;13.064;2023-05-29T06:46:14;10.10;;;9.20;;
19089;SDS011;9677;50.656;13.064;2023-05-29T06:48:42;10.40;;;9.40;;
19089;SDS011;9677;50.656;13.064;2023-05-29T06:51:11;9.73;;;8.83;;
19089;SDS011;9677;50.656;13.064;2023-05-29T06:53:39;10.20;;;9.30;;
19089;SDS011;9677;50.656;13.064;2023-05-29T06:56:11;9.80;;;8.90;;
19089;SDS011;9677;50.656;13.064;2023-05-29T06:58:39;9.80;;;8.90;;
19089;SDS011;9677;50.656;13.064;2023-05-29T07:01:07;10.07;;;9.17;;
19089;SDS011;9677;50.656;13.064;2023-05-29T07:03:43;9.87;;;8.90;;
19089;SDS011;9677;50.656;13.064;2023-05-29T07:06:13;9.90;;;9.00;;
19089;SDS011;9677;50.656;13.064;2023-05-29T07:08:41;9.87;;;8.97;;
19089;SDS011;9677;50.656;13.064;2023-05-29T07:11:10;9.70;;;8.80;;
19089;SDS011;9677;50.656;13.064;2023-05-29T07:13:39;9.87;;;8.97;;
19089;SDS011;9677;50.656;13.064;2023-05-29T07:16:07;9.93;;;8.90;;
19089;SDS011;9677;50.656;13.064;2023-05-29T07:18:53;9.90;;;8.90;;
19089;SDS011;9677;50.656;13.064;2023-05-29T07:21:21;9.93;;;8.97;;
19089;SDS011;9677;50.656;13.064;2023-05-29T07:23:49;9.60;;;8.70;;
19089;SDS011;9677;50.656;13.064;2023-05-29T07:26:18;9.50;;;8.60;;
19089;SDS011;9677;50.656;13.064;2023-05-29T07:28:48;9.80;;;8.80;;
19089;SDS011;9677;50.656;13.064;2023-05-29T07:31:17;9.60;;;8.70;;
19089;SDS011;9677;50.656;13.064;2023-05-29T07:33:46;10.00;;;9.10;;
19089;SDS011;9677;50.656;13.064;2023-05-29T07:36:16;9.90;;;9.00;;
19089;SDS011;9677;50.656;13.064;2023-05-29T07:38:47;9.67;;;8.70;;
19089;SDS011;9677;50.656;13.064;2023-05-29T07:41:17;11.07;;;8.70;;
19089;SDS011;9677;50.656;13.064;2023-05-29T07:43:52;9.63;;;8.50;;
19089;SDS011;9677;50.656;13.064;2023-05-29T07:46:22;9.10;;;8.30;;
19089;SDS011;9677;50.656;13.064;2023-05-29T07:48:58;9.00;;;8.20;;
19089;SDS011;9677;50.656;13.064;2023-05-29T07:51:27;9.20;;;8.30;;
19089;SDS011;9677;50.656;13.064;2023-05-29T07:53:57;9.30;;;8.40;;
19089;SDS011;9677;50.656;13.064;2023-05-29T07:56:25;9.00;;;8.17;;
19089;SDS011;9677;50.656;13.064;2023-05-29T07:58:53;9.17;;;8.30;;
19089;SDS011;9677;50.656;13.064;2023-05-29T08:01:23;9.17;;;8.33;;
19089;SDS011;9677;50.656;13.064;2023-05-29T08:03:51;9.03;;;8.13;;
19089;SDS011;9677;50.656;13.064;2023-05-29T08:06:30;9.03;;;8.23;;
19089;SDS011;9677;50.656;13.064;2023-05-29T08:09:00;9.30;;;8.07;;
19089;SDS011;9677;50.656;13.064;2023-05-29T08:11:29;8.93;;;8.10;;
19089;SDS011;9677;50.656;13.064;2023-05-29T08:13:57;9.20;;;8.30;;
19089;SDS011;9677;50.656;13.064;2023-05-29T08:16:26;9.03;;;8.13;;
19089;SDS011;9677;50.656;13.064;2023-05-29T08:18:54;8.93;;;8.13;;
19089;SDS011;9677;50.656;13.064;2023-05-29T08:21:22;8.97;;;8.17;;
19089;SDS011;9677;50.656;13.064;2023-05-29T08:23:53;9.20;;;8.40;;
19089;SDS011;9677;50.656;13.064;2023-05-29T08:26:21;11.60;;;8.37;;
19089;SDS011;9677;50.656;13.064;2023-05-29T08:28:49;8.70;;;7.90;;
19089;SDS011;9677;50.656;13.064;2023-05-29T08:31:17;9.23;;;8.10;;
19089;SDS011;9677;50.656;13.064;2023-05-29T08:33:46;8.90;;;8.10;;
19089;SDS011;9677;50.656;13.064;2023-05-29T08:36:14;9.07;;;8.17;;
19089;SDS011;9677;50.656;13.064;2023-05-29T08:38:42;9.17;;;8.27;;
19089;SDS011;9677;50.656;13.064;2023-05-29T08:41:12;8.90;;;8.10;;
19089;SDS011;9677;50.656;13.064;2023-05-29T08:43:45;9.43;;;8.50;;
19089;SDS011;9677;50.656;13.064;2023-05-29T08:46:17;9.30;;;8.40;;
19089;SDS011;9677;50.656;13.064;2023-05-29T08:48:47;9.10;;;8.20;;
19089;SDS011;9677;50.656;13.064;2023-05-29T08:51:18;10.67;;;9.50;;
19089;SDS011;9677;50.656;13.064;2023-05-29T08:53:48;9.60;;;8.70;;
19089;SDS011;9677;50.656;13.064;2023-05-29T08:56:19;9.27;;;8.47;;
19089;SDS011;9677;50.656;13.064;2023-05-29T08:59:00;9.30;;;8.40;;
19089;SDS011;9677;50.656;13.064;2023-05-29T09:01:33;9.30;;;8.40;;
19089;SDS011;9677;50.656;13.064;2023-05-29T09:04:03;9.20;;;8.30;;
19089;SDS011;9677;50.656;13.064;2023-05-29T09:06:31;12.80;;;8.30;;
19089;SDS011;9677;50.656;13.064;2023-05-29T09:09:00;9.60;;;8.47;;
19089;SDS011;9677;50.656;13.064;2023-05-29T09:11:29;9.00;;;8.20;;
19089;SDS011;9677;50.656;13.064;2023-05-29T09:13:57;8.80;;;8.00;;
19089;SDS011;9677;50.656;13.064;2023-05-29T09:16:26;9.00;;;8.10;;
19089;SDS011;9677;50.656;13.064;2023-05-29T09:19:01;8.80;;;8.00;;
19089;SDS011;9677;50.656;13.064;2023-05-29T09:21:32;8.90;;;8.10;;
19089;SDS011;9677;50.656;13.064;2023-05-29T09:24:04;9.63;;;8.60;;
19089;SDS011;9677;50.656;13.064;2023-05-29T09:26:35;9.00;;;8.20;;
19089;SDS011;9677;50.656;13.064;2023-05-29T09:29:03;9.50;;;8.50;;
19089;SDS011;9677;50.656;13.064;2023-05-29T09:31:31;8.97;;;8.07;;
19089;SDS011;9677;50.656;13.064;2023-05-29T09:34:01;12.00;;;8.13;;
19089;SDS011;9677;50.656;13.064;2023-05-29T09:36:31;8.60;;;7.80;;
19089;SDS011;9677;50.656;13.064;2023-05-29T09:39:01;9.20;;;8.30;;
19089;SDS011;9677;50.656;13.064;2023-05-29T09:41:44;9.67;;;8.33;;
19089;SDS011;9677;50.656;13.064;2023-05-29T09:44:14;8.77;;;7.97;;
19089;SDS011;9677;50.656;13.064;2023-05-29T09:46:43;9.10;;;8.30;;
19089;SDS011;9677;50.656;13.064;2023-05-29T09:49:12;9.10;;;7.97;;
19089;SDS011;9677;50.656;13.064;2023-05-29T09:51:43;9.10;;;8.20;;
19089;SDS011;9677;50.656;13.064;2023-05-29T09:54:15;8.83;;;8.03;;
19089;SDS011;9677;50.656;13.064;2023-05-29T09:56:45;9.23;;;8.33;;
19089;SDS011;9677;50.656;13.064;2023-05-29T09:59:14;9.07;;;8.17;;
19089;SDS011;9677;50.656;13.064;2023-05-29T10:01:46;8.60;;;7.83;;
19089;SDS011;9677;50.656;13.064;2023-05-29T10:04:15;9.00;;;8.20;;
19089;SDS011;9677;50.656;13.064;2023-05-29T10:06:44;9.13;;;8.23;;
19089;SDS011;9677;50.656;13.064;2023-05-29T10:09:16;9.07;;;8.17;;
19089;SDS011;9677;50.656;13.064;2023-05-29T10:11:49;9.33;;;8.40;;
19089;SDS011;9677;50.656;13.064;2023-05-29T10:14:19;9.27;;;8.47;;
19089;SDS011;9677;50.656;13.064;2023-05-29T10:16:50;8.93;;;8.03;;
19089;SDS011;9677;50.656;13.064;2023-05-29T10:19:21;9.13;;;8.23;;
19089;SDS011;9677;50.656;13.064;2023-05-29T10:21:54;9.10;;;8.30;;
19089;SDS011;9677;50.656;13.064;2023-05-29T10:24:23;8.90;;;8.10;;
19089;SDS011;9677;50.656;13.064;2023-05-29T10:26:53;9.10;;;8.30;;
19089;SDS011;9677;50.656;13.064;2023-05-29T10:29:25;9.17;;;8.27;;
19089;SDS011;9677;50.656;13.064;2023-05-29T10:32:01;9.27;;;8.37;;
19089;SDS011;9677;50.656;13.064;2023-05-29T10:34:42;9.70;;;8.80;;
19089;SDS011;9677;50.656;13.064;2023-05-29T10:37:28;8.87;;;8.07;;
19089;SDS011;9677;50.656;13.064;2023-05-29T10:40:03;9.50;;;8.60;;
19089;SDS011;9677;50.656;13.064;2023-05-29T10:42:43;9.77;;;8.47;;
19089;SDS011;9677;50.656;13.064;2023-05-29T10:48:35;9.30;;;8.40;;
19089;SDS011;9677;50.656;13.064;2023-05-29T10:51:07;9.60;;;8.60;;
19089;SDS011;9677;50.656;13.064;2023-05-29T10:53:37;9.17;;;8.13;;
19089;SDS011;9677;50.656;13.064;2023-05-29T10:56:09;9.50;;;8.60;;
19089;SDS011;9677;50.656;13.064;2023-05-29T10:58:45;9.73;;;8.43;;
19089;SDS011;9677;50.656;13.064;2023-05-29T11:01:21;9.20;;;8.30;;
19089;SDS011;9677;50.656;13.064;2023-05-29T11:03:51;8.80;;;8.07;;
19089;SDS011;9677;50.656;13.064;2023-05-29T11:06:20;9.20;;;8.30;;
19089;SDS011;9677;50.656;13.064;2023-05-29T11:08:53;8.60;;;7.80;;
19089;SDS011;9677;50.656;13.064;2023-05-29T11:11:29;9.47;;;8.57;;
19089;SDS011;9677;50.656;13.064;2023-05-29T11:14:02;9.63;;;8.73;;
19089;SDS011;9677;50.656;13.064;2023-05-29T11:16:35;9.43;;;8.53;;
19089;SDS011;9677;50.656;13.064;2023-05-29T11:19:04;9.43;;;8.50;;
19089;SDS011;9677;50.656;13.064;2023-05-29T11:21:49;9.33;;;8.43;;
19089;SDS011;9677;50.656;13.064;2023-05-29T11:24:31;9.40;;;8.50;;
19089;SDS011;9677;50.656;13.064;2023-05-29T11:27:03;9.23;;;8.37;;
19089;SDS011;9677;50.656;13.064;2023-05-29T11:29:35;9.37;;;8.50;;
19089;SDS011;9677;50.656;13.064;2023-05-29T11:32:04;9.20;;;8.30;;
19089;SDS011;9677;50.656;13.064;2023-05-29T11:34:35;9.20;;;8.30;;
19089;SDS011;9677;50.656;13.064;2023-05-29T11:37:08;8.80;;;8.00;;
19089;SDS011;9677;50.656;13.064;2023-05-29T11:39:37;9.20;;;8.30;;
19089;SDS011;9677;50.656;13.064;2023-05-29T11:42:07;9.07;;;8.23;;
19089;SDS011;9677;50.656;13.064;2023-05-29T11:44:37;9.90;;;8.33;;
19089;SDS011;9677;50.656;13.064;2023-05-29T11:47:06;9.10;;;8.20;;
19089;SDS011;9677;50.656;13.064;2023-05-29T11:49:36;9.30;;;8.50;;
19089;SDS011;9677;50.656;13.064;2023-05-29T11:52:05;9.33;;;8.40;;
19089;SDS011;9677;50.656;13.064;2023-05-29T11:54:37;9.00;;;8.20;;
19089;SDS011;9677;50.656;13.064;2023-05-29T11:57:05;9.20;;;8.30;;
19089;SDS011;9677;50.656;13.064;2023-05-29T11:59:33;13.60;;;8.30;;
19089;SDS011;9677;50.656;13.064;2023-05-29T12:02:03;8.77;;;7.97;;
19089;SDS011;9677;50.656;13.064;2023-05-29T12:04:32;9.67;;;8.57;;
19089;SDS011;9677;50.656;13.064;2023-05-29T12:07:00;9.30;;;8.40;;
19089;SDS011;9677;50.656;13.064;2023-05-29T12:09:29;9.20;;;8.20;;
19089;SDS011;9677;50.656;13.064;2023-05-29T12:12:01;10.37;;;8.10;;
19089;SDS011;9677;50.656;13.064;2023-05-29T12:14:29;9.27;;;8.37;;
19089;SDS011;9677;50.656;13.064;2023-05-29T12:16:58;9.77;;;8.77;;
19089;SDS011;9677;50.656;13.064;2023-05-29T12:19:27;9.30;;;8.43;;
19089;SDS011;9677;50.656;13.064;2023-05-29T12:21:56;9.20;;;8.40;;
19089;SDS011;9677;50.656;13.064;2023-05-29T12:24:24;10.00;;;8.80;;
19089;SDS011;9677;50.656;13.064;2023-05-29T12:26:57;9.30;;;8.40;;
19089;SDS011;9677;50.656;13.064;2023-05-29T12:29:29;9.57;;;8.57;;
19089;SDS011;9677;50.656;13.064;2023-05-29T12:31:57;8.90;;;8.10;;
19089;SDS011;9677;50.656;13.064;2023-05-29T12:34:27;9.00;;;8.20;;
19089;SDS011;9677;50.656;13.064;2023-05-29T12:37:05;9.00;;;8.17;;
19089;SDS011;9677;50.656;13.064;2023-05-29T12:39:39;9.20;;;8.30;;
19089;SDS011;9677;50.656;13.064;2023-05-29T12:42:07;9.30;;;8.40;;
19089;SDS011;9677;50.656;13.064;2023-05-29T12:44:37;9.47;;;8.50;;
19089;SDS011;9677;50.656;13.064;2023-05-29T12:47:05;8.53;;;7.73;;
19089;SDS011;9677;50.656;13.064;2023-05-29T12:49:36;9.20;;;8.30;;
19089;SDS011;9677;50.656;13.064;2023-05-29T12:52:04;9.00;;;8.20;;
19089;SDS011;9677;50.656;13.064;2023-05-29T12:54:36;9.53;;;8.63;;
19089;SDS011;9677;50.656;13.064;2023-05-29T12:57:05;9.27;;;8.37;;
19089;SDS011;9677;50.656;13.064;2023-05-29T12:59:34;9.13;;;8.27;;
19089;SDS011;9677;50.656;13.064;2023-05-29T13:02:02;9.27;;;8.43;;
19089;SDS011;9677;50.656;13.064;2023-05-29T13:04:30;8.90;;;8.10;;
19089;SDS011;9677;50.656;13.064;2023-05-29T13:06:59;9.40;;;8.50;;
19089;SDS011;9677;50.656;13.064;2023-05-29T13:09:27;9.37;;;8.47;;
19089;SDS011;9677;50.656;13.064;2023-05-29T13:11:56;9.20;;;8.30;;
19089;SDS011;9677;50.656;13.064;2023-05-29T13:14:24;8.90;;;8.10;;
19089;SDS011;9677;50.656;13.064;2023-05-29T13:16:52;9.40;;;8.50;;
19089;SDS011;9677;50.656;13.064;2023-05-29T13:19:20;9.60;;;8.60;;
19089;SDS011;9677;50.656;13.064;2023-05-29T13:21:48;9.23;;;8.37;;
19089;SDS011;9677;50.656;13.064;2023-05-29T13:24:17;9.33;;;8.43;;
19089;SDS011;9677;50.656;13.064;2023-05-29T13:26:46;9.33;;;8.43;;
19089;SDS011;9677;50.656;13.064;2023-05-29T13:29:14;9.70;;;8.70;;
19089;SDS011;9677;50.656;13.064;2023-05-29T13:31:42;9.83;;;8.40;;
19089;SDS011;9677;50.656;13.064;2023-05-29T13:34:10;9.90;;;8.90;;
19089;SDS011;9677;50.656;13.064;2023-05-29T13:36:38;9.40;;;8.50;;
19089;SDS011;9677;50.656;13.064;2023-05-29T13:39:06;9.00;;;8.20;;
19089;SDS011;9677;50.656;13.064;2023-05-29T13:41:35;9.00;;;8.20;;
19089;SDS011;9677;50.656;13.064;2023-05-29T13:44:03;9.27;;;8.37;;
19089;SDS011;9677;50.656;13.064;2023-05-29T13:46:31;9.00;;;8.17;;
19089;SDS011;9677;50.656;13.064;2023-05-29T13:48:59;9.80;;;8.80;;
19089;SDS011;9677;50.656;13.064;2023-05-29T13:51:27;9.00;;;8.20;;
19089;SDS011;9677;50.656;13.064;2023-05-29T13:53:55;9.60;;;8.67;;
19089;SDS011;9677;50.656;13.064;2023-05-29T13:56:23;9.77;;;8.87;;
19089;SDS011;9677;50.656;13.064;2023-05-29T13:58:54;9.33;;;8.43;;
19089;SDS011;9677;50.656;13.064;2023-05-29T14:01:22;9.30;;;8.40;;
19089;SDS011;9677;50.656;13.064;2023-05-29T14:03:51;9.37;;;8.40;;
19089;SDS011;9677;50.656;13.064;2023-05-29T14:06:19;9.63;;;8.73;;
19089;SDS011;9677;50.656;13.064;2023-05-29T14:08:47;9.50;;;8.60;;
19089;SDS011;9677;50.656;13.064;2023-05-29T14:11:15;9.43;;;8.53;;
19089;SDS011;9677;50.656;13.064;2023-05-29T14:13:43;9.50;;;8.60;;
19089;SDS011;9677;50.656;13.064;2023-05-29T14:16:13;9.53;;;8.63;;
19089;SDS011;9677;50.656;13.064;2023-05-29T14:18:42;9.30;;;8.40;;
19089;SDS011;9677;50.656;13.064;2023-05-29T14:21:10;8.80;;;8.00;;
19089;SDS011;9677;50.656;13.064;2023-05-29T14:23:38;9.10;;;8.20;;
19089;SDS011;9677;50.656;13.064;2023-05-29T14:26:06;9.50;;;8.60;;
19089;SDS011;9677;50.656;13.064;2023-05-29T14:28:34;9.80;;;8.80;;
19089;SDS011;9677;50.656;13.064;2023-05-29T14:31:03;9.70;;;8.70;;
19089;SDS011;9677;50.656;13.064;2023-05-29T14:33:33;9.33;;;8.47;;
19089;SDS011;9677;50.656;13.064;2023-05-29T14:36:03;9.77;;;8.40;;
19089;SDS011;9677;50.656;13.064;2023-05-29T14:38:31;9.43;;;8.53;;
19089;SDS011;9677;50.656;13.064;2023-05-29T14:40:59;9.87;;;8.63;;
19089;SDS011;9677;50.656;13.064;2023-05-29T14:43:35;9.33;;;8.43;;
19089;SDS011;9677;50.656;13.064;2023-05-29T14:46:03;9.43;;;8.53;;
19089;SDS011;9677;50.656;13.064;2023-05-29T14:48:33;9.40;;;8.50;;
19089;SDS011;9677;50.656;13.064;2023-05-29T14:51:01;9.40;;;8.50;;
19089;SDS011;9677;50.656;13.064;2023-05-29T14:53:29;9.20;;;8.33;;
19089;SDS011;9677;50.656;13.064;2023-05-29T14:55:58;9.80;;;8.80;;
19089;SDS011;9677;50.656;13.064;2023-05-29T14:58:27;9.17;;;8.37;;
19089;SDS011;9677;50.656;13.064;2023-05-29T15:00:55;9.57;;;8.60;;